TAF KMSS
KMSS 270528Z 2706/2806 29014G23KT P6SM VCSH OVC018 FM270900 28012G21KT P6SM OVC018 FM271200 27011G19KT P6SM SCT018 BKN025 FM271600 27009G18KT P6SM FEW025 FM272200 25005KT P6SM SKC=
METAR KMSS
WC KMSS
WS KMSS
WV KMSS